Latest Weather Observations for Rabbit Flat

IDD60801

Issued at 11:01 pm CST Friday 15 November 2019 (issued every 10 minutes, with the page automatically refreshed every 10 minutes)

About weather observations | Map of weather stations | Latest weather observations for NT | Other Formats
Station Details ID: 015666 Name: RABBIT FLAT Lat: -20.18 Lon: 130.01 Height: 340.0 m
Data from the previous 72 hours. | See also: Recent months at Rabbit Flat
Date/Time
CST
Temp
°C
App
Temp
°C
Dew
Point
°C
Rel
Hum
%
Delta-T
°C
Wind Press
QNH
hPa
Press
MSL
hPa
Rain since
9am
mm
Dir  Spd
km/h
Gust
km/h
Spd
kts
Gust
kts
15/11:00pm 23.7 20.3 -9.7 10 12.9 SE 2 6 1 3 1013.5 - 0.0
15/10:30pm 25.1 20.9 -10.0 9 13.7 ESE 6 7 3 4 1013.5 - 0.0
15/10:00pm 27.3 23.1 -9.8 8 14.8 SE 6 7 3 4 1013.3 - 0.0
15/09:30pm 29.3 24.9 -10.0 7 15.9 SSE 7 11 4 6 1013.0 - 0.0
15/09:00pm 30.7 25.6 -9.0 7 16.6 SE 11 15 6 8 1012.6 1010.1 0.0
15/08:30pm 31.3 26.6 -8.6 7 16.9 SSE 9 11 5 6 1012.4 - 0.0
15/08:00pm 33.2 27.7 -9.2 6 18.0 SSE 13 15 7 8 1012.1 - 0.0
15/07:30pm 34.9 29.4 -10.3 5 19.2 SSE 13 17 7 9 1011.7 - 0.0
15/07:00pm 37.1 30.3 -11.6 4 20.6 SE 19 22 10 12 1011.3 - 0.0
15/06:30pm 38.2 31.3 -10.8 4 21.2 S 20 28 11 15 1010.9 - 0.0
15/06:00pm 39.3 33.8 -10.1 4 21.8 SSE 13 22 7 12 1010.8 1008.3 0.0
15/05:30pm 39.3 33.4 -10.1 4 21.8 SSW 15 28 8 15 1010.6 - 0.0
15/05:00pm 39.6 33.3 -9.9 4 21.9 S 17 26 9 14 1010.5 - 0.0
15/04:30pm 40.2 33.4 -9.5 4 22.3 SE 20 30 11 16 1010.6 - 0.0
15/04:00pm 39.6 31.6 -9.9 4 21.9 SSE 26 37 14 20 1010.7 - 0.0
15/03:30pm 40.0 33.4 -9.6 4 22.2 SE 19 30 10 16 1010.8 - 0.0
15/03:00pm 39.9 34.0 -9.7 4 22.1 S 15 26 8 14 1011.2 1008.7 0.0
15/02:30pm 40.8 35.5 -12.7 3 23.0 ESE 11 32 6 17 1011.5 - 0.0
15/02:00pm 39.6 33.9 -13.4 3 22.3 ENE 13 22 7 12 1012.2 - 0.0
15/01:30pm 39.3 33.5 -13.6 3 22.1 N 13 24 7 13 1012.6 - 0.0
15/01:00pm 38.0 31.8 -14.5 3 21.4 ENE 15 28 8 15 1013.1 - 0.0
15/12:30pm 37.6 31.4 -14.7 3 21.2 NE 15 28 8 15 1013.4 - 0.0
15/12:00pm 37.2 30.2 -15.0 3 21.0 NNE 19 32 10 17 1013.8 1011.3 0.0
15/11:30am 36.7 29.7 -15.3 3 20.7 NE 19 35 10 19 1014.2 - 0.0
15/11:00am 36.4 28.8 -15.5 3 20.6 NE 22 41 12 22 1014.6 - 0.0
15/10:30am 35.0 27.0 -16.5 3 19.8 ENE 24 35 13 19 1014.9 - 0.0
15/10:00am 34.5 27.2 -16.8 3 19.6 NE 20 33 11 18 1015.2 - 0.0
15/09:30am 33.1 24.3 -17.7 3 18.8 ENE 28 39 15 21 1015.3 - 0.0
15/09:00am 32.1 23.4 -15.0 4 18.0 ENE 28 39 15 21 1015.2 1012.7 0.0
15/08:30am 31.1 22.4 -15.6 4 17.5 ENE 28 41 15 22 1015.0 - 0.0
15/08:00am 29.7 21.8 -13.9 5 16.6 ENE 24 35 13 19 1014.9 - 0.0
15/07:30am 27.4 22.3 -9.7 8 14.8 ENE 11 22 6 12 1014.7 - 0.0
15/07:00am 24.8 20.1 -8.8 10 13.3 ESE 9 13 5 7 1014.4 - 0.0
15/06:30am 21.7 17.3 -10.0 11 11.9 E 7 9 4 5 1013.6 - 0.0
15/06:00am 23.2 18.9 -8.9 11 12.5 NE 7 11 4 6 1012.9 1010.3 0.0
15/05:30am 22.9 18.6 -9.1 11 12.4 ENE 7 9 4 5 1012.5 - 0.0
15/05:00am 20.9 16.6 -8.5 13 11.3 ENE 7 9 4 5 1012.1 - 0.0
15/04:30am 22.4 17.9 -7.3 13 11.8 NE 9 11 5 6 1012.0 - 0.0
15/04:00am 22.5 17.9 -8.3 12 12.0 ENE 9 11 5 6 1011.8 - 0.0
15/03:30am 22.1 17.9 -7.6 13 11.7 E 7 9 4 5 1011.8 - 0.0
15/03:00am 22.3 17.7 -8.4 12 12.0 ESE 9 13 5 7 1011.9 1009.4 0.0
15/02:30am 21.7 18.7 -8.9 12 11.7 CALM 0 6 0 3 1011.6 - 0.0
15/02:00am 22.7 19.7 -9.2 11 12.3 CALM 0 0 0 0 1011.6 - 0.0
15/01:30am 23.6 19.4 -9.8 10 12.8 SSW 6 7 3 4 1011.9 - 0.0
15/01:00am 24.6 20.0 -7.8 11 13.1 SSW 9 11 5 6 1012.4 - 0.0
15/12:30am 23.8 20.8 -9.6 10 12.9 CALM 0 0 0 0 1012.6 - 0.0
15/12:00am 24.1 20.3 -9.4 10 13.0 NW 4 7 2 4 1012.9 1010.3 0.0
 
Date/Time
CST
Temp
°C
App
Temp
°C
Dew
Point
°C
Rel
Hum
%
Delta-T
°C
Wind Press
QNH
hPa
Press
MSL
hPa
Rain since
9am
mm
Dir  Spd
km/h
Gust
km/h
Spd
kts
Gust
kts
14/11:30pm 24.4 20.3 -9.1 10 13.2 E 6 7 3 4 1013.0 - 0.0
14/11:00pm 25.0 20.6 -10.0 9 13.6 E 7 7 4 4 1013.2 - 0.0
14/10:30pm 25.3 21.1 -9.8 9 13.7 E 6 7 3 4 1013.2 - 0.0
14/10:00pm 25.9 22.8 -10.8 8 14.2 CALM 0 0 0 0 1012.9 - 0.0
14/09:30pm 26.8 23.8 -8.7 9 14.4 CALM 0 0 0 0 1012.8 - 0.0
14/09:00pm 27.9 23.6 -11.0 7 15.3 ENE 6 9 3 5 1012.6 1010.1 0.0
14/08:30pm 30.9 26.2 -8.9 7 16.7 E 9 11 5 6 1012.3 - 0.0
14/08:00pm 32.6 27.9 -9.6 6 17.8 E 9 11 5 6 1012.0 - 0.0
14/07:30pm 33.8 28.6 -11.0 5 18.6 E 11 13 6 7 1011.7 - 0.0
14/07:00pm 35.9 30.8 -9.6 5 19.7 SE 11 17 6 9 1011.5 - 0.0
14/06:30pm 37.3 31.3 -11.4 4 20.7 SE 15 24 8 13 1011.2 - 0.0
14/06:00pm 38.3 32.0 -10.7 4 21.3 SE 17 22 9 12 1011.0 1008.5 0.0
14/05:30pm 38.8 34.0 -10.4 4 21.5 E 9 19 5 10 1011.0 - 0.0
14/05:00pm 38.7 33.1 -10.5 4 21.5 E 13 17 7 9 1011.0 - 0.0
14/04:30pm 38.8 33.6 -10.4 4 21.5 E 11 15 6 8 1011.3 - 0.0
14/04:00pm 39.1 32.4 -10.2 4 21.7 E 19 26 10 14 1011.6 - 0.0
14/03:30pm 39.4 34.6 -10.0 4 21.8 ENE 9 17 5 9 1012.0 - 0.0
14/03:00pm 38.7 33.9 -10.5 4 21.5 E 9 17 5 9 1012.5 1010.0 0.0
14/02:30pm 38.6 31.7 -10.5 4 21.4 ESE 20 28 11 15 1013.0 - 0.0
14/02:00pm 38.9 32.6 -10.3 4 21.6 ENE 17 26 9 14 1013.5 - 0.0
14/01:30pm 37.1 30.9 -8.7 5 20.3 ENE 17 28 9 15 1014.0 - 0.0
14/01:00pm 37.1 30.5 -8.7 5 20.3 ENE 19 30 10 16 1014.5 - 0.0
14/12:30pm 36.1 29.5 -9.4 5 19.8 ENE 19 33 10 18 1015.0 - 0.0
14/12:00pm 35.2 28.2 -7.7 6 19.0 NE 22 35 12 19 1015.3 1012.8 0.0
14/11:30am 34.4 27.7 -8.3 6 18.6 ENE 20 33 11 18 1015.7 - 0.0
14/11:00am 34.5 27.0 -8.2 6 18.7 ENE 24 35 13 19 1016.0 - 0.0
14/10:30am 33.6 26.2 -6.9 7 18.0 NE 24 39 13 21 1016.2 - 0.0
14/10:00am 32.3 24.1 -7.8 7 17.3 ENE 28 41 15 22 1016.5 - 0.0
14/09:30am 31.1 23.4 -7.0 8 16.5 ENE 26 33 14 18 1016.5 - 0.0
14/09:00am 30.0 22.2 -7.8 8 16.0 E 26 37 14 20 1016.5 1014.0 0.0
14/08:30am 29.1 21.4 -7.0 9 15.4 E 26 39 14 21 1016.4 - 0.0
14/08:00am 28.4 21.9 -6.1 10 14.9 ENE 20 30 11 16 1016.1 - 0.0
14/07:30am 27.3 21.0 -5.7 11 14.2 E 19 30 10 16 1015.7 - 0.0
14/07:00am 26.1 21.0 -5.5 12 13.5 E 13 19 7 10 1015.3 - 0.0
14/06:30am 25.2 20.0 -6.2 12 13.1 E 13 17 7 9 1014.7 - 0.0
14/06:00am 25.3 20.1 -6.1 12 13.2 ENE 13 20 7 11 1014.3 1011.8 0.0
14/05:30am 25.2 20.4 -6.2 12 13.1 ENE 11 15 6 8 1013.9 - 0.0
14/05:00am 26.0 20.8 -6.7 11 13.6 E 13 19 7 10 1013.5 - 0.0
14/04:30am 26.2 20.6 -6.5 11 13.7 E 15 22 8 12 1013.1 - 0.0
14/04:00am 25.9 20.9 -8.0 10 13.8 ESE 11 15 6 8 1013.0 - 0.0
14/03:30am 26.9 21.2 -7.3 10 14.2 E 15 22 8 12 1012.6 - 0.0
14/03:00am 28.0 21.9 -7.8 9 14.9 E 17 20 9 11 1012.3 1009.8 0.0
14/02:30am 28.0 21.9 -7.8 9 14.9 ENE 17 26 9 14 1012.2 - 0.0
14/02:00am 26.7 21.4 -7.4 10 14.1 E 13 19 7 10 1012.2 - 0.0
14/01:30am 27.0 21.7 -7.2 10 14.3 ENE 13 17 7 9 1012.5 - 0.0
14/01:00am 25.9 21.0 -6.8 11 13.6 ENE 11 15 6 8 1012.9 - 0.0
14/12:30am 26.2 21.2 -7.8 10 13.9 E 11 13 6 7 1013.3 - 0.0
14/12:00am 27.5 22.6 -6.8 10 14.5 ENE 11 15 6 8 1013.4 1010.9 0.0
 
Date/Time
CST
Temp
°C
App
Temp
°C
Dew
Point
°C
Rel
Hum
%
Delta-T
°C
Wind Press
QNH
hPa
Press
MSL
hPa
Rain since
9am
mm
Dir  Spd
km/h
Gust
km/h
Spd
kts
Gust
kts
13/11:30pm 27.6 22.4 -6.7 10 14.5 E 13 17 7 9 1013.5 - 0.0
13/11:00pm 27.1 22.2 -7.1 10 14.3 E 11 13 6 7 1013.6 - 0.0
13/10:30pm 29.0 23.7 -7.0 9 15.3 E 13 17 7 9 1013.6 - 0.0
13/10:00pm 29.8 24.2 -6.4 9 15.7 E 15 19 8 10 1013.4 - 0.0
13/09:30pm 30.6 25.4 -5.8 9 16.1 E 13 17 7 9 1013.2 - 0.0
13/09:00pm 31.2 26.3 -6.9 8 16.6 E 11 15 6 8 1012.8 1010.2 0.0
13/08:30pm 32.2 27.2 -7.9 7 17.3 E 11 15 6 8 1012.4 - 0.0
13/08:00pm 34.3 28.9 -8.4 6 18.6 E 13 19 7 10 1012.1 - 0.0
13/07:30pm 35.5 30.2 -7.5 6 19.2 E 13 17 7 9 1011.7 - 0.0
13/07:00pm 36.9 31.8 -8.9 5 20.2 E 11 15 6 8 1011.3 - 0.0
13/06:30pm 38.8 34.0 -10.4 4 21.5 ESE 9 13 5 7 1011.1 - 0.0
13/06:00pm 39.5 33.2 -9.9 4 21.9 E 17 20 9 11 1010.9 1008.4 0.0
13/05:30pm 40.2 35.9 -9.5 4 22.3 E 7 15 4 8 1010.7 - 0.0
13/05:00pm 40.3 34.6 -13.0 3 22.7 NNE 13 20 7 11 1010.6 - 0.0
13/04:30pm 40.3 34.6 -13.0 3 22.7 NE 13 22 7 12 1010.6 - 0.0
13/04:00pm 40.4 34.2 -9.3 4 22.4 E 17 26 9 14 1010.9 - 0.0
13/03:30pm 40.7 35.6 -9.1 4 22.5 ESE 11 26 6 14 1011.1 - 0.0
13/03:00pm 40.8 34.6 -9.1 4 22.6 ENE 17 32 9 17 1011.5 1009.0 0.0
13/02:30pm 40.4 34.2 -9.3 4 22.4 ENE 17 35 9 19 1011.8 - 0.0
13/02:00pm 40.4 33.6 -9.3 4 22.4 NNE 20 30 11 16 1012.2 - 0.0
13/01:30pm 39.4 31.6 -7.2 5 21.5 NE 26 41 14 22 1012.9 - 0.0
13/01:00pm 39.3 32.2 -4.8 6 21.1 ENE 24 41 13 22 1013.2 - 0.0
13/12:30pm 38.8 31.6 -5.2 6 20.8 NE 24 35 13 19 1013.8 - 0.0
13/12:00pm 37.4 29.9 -4.2 7 19.8 NE 26 37 14 20 1014.2 1011.7 0.0
13/11:30am 36.4 28.5 -4.9 7 19.3 ENE 28 39 15 21 1014.6 - 0.0
13/11:00am 35.4 26.8 -3.8 8 18.5 ENE 32 46 17 25 1015.1 - 0.0
13/10:42am 35.1 26.3 -4.1 8 18.4 NE 33 52 18 28 1015.2 - 0.0
13/10:30am 34.6 25.8 -4.4 8 18.2 ENE 33 46 18 25 1015.3 - 0.0
13/10:00am 33.9 25.6 -4.9 8 17.8 ENE 30 44 16 24 1015.5 - 0.0
13/09:30am 32.8 23.5 -5.7 8 17.3 E 35 54 19 29 1015.6 - 0.0
13/09:17am 32.7 24.5 -4.3 9 17.0 E 30 52 16 28 1015.5 - 0.0
13/09:00am 32.4 23.6 -4.5 9 16.9 E 33 50 18 27 1015.6 1013.2 0.0
13/08:30am 31.5 22.8 -3.8 10 16.2 E 33 46 18 25 1015.5 - 0.0
13/08:00am 30.8 22.0 -4.3 10 15.9 E 33 48 18 26 1015.3 - 0.0
13/07:30am 29.8 21.9 -5.1 10 15.5 E 28 41 15 22 1014.9 - 0.0
13/07:00am 26.8 20.2 -8.7 9 14.4 ESE 19 33 10 18 1014.6 - 0.0
13/06:30am 24.3 18.7 -10.6 9 13.3 ESE 13 17 7 9 1014.2 - 0.0
13/06:00am 24.5 18.9 -10.4 9 13.4 E 13 17 7 9 1013.8 1011.3 0.0
13/05:30am 26.7 20.4 -10.2 8 14.5 E 17 22 9 12 1013.3 - 0.0
13/05:00am 26.8 20.1 -10.2 8 14.6 ESE 19 28 10 15 1013.0 - 0.0
13/04:30am 24.6 18.6 -11.8 8 13.6 SE 15 19 8 10 1012.6 - 0.0
13/04:00am 26.0 19.1 -10.8 8 14.2 SSE 20 32 11 17 1011.7 - 0.0
13/03:55am 24.3 17.5 -9.2 10 13.1 SSE 20 28 11 15 1011.4 - 0.0
13/03:30am 19.3 16.0 -14.3 9 11.3 CALM 0 0 0 0 1010.7 - 0.0
13/03:00am 19.8 16.5 -13.9 9 11.5 CALM 0 0 0 0 1010.8 1008.3 0.0
13/02:30am 19.9 16.6 -13.9 9 11.5 CALM 0 0 0 0 1010.9 - 0.0
13/02:00am 20.9 16.9 -13.1 9 11.9 WNW 4 7 2 4 1011.1 - 0.0
13/01:30am 21.2 16.6 -12.9 9 12.0 WNW 7 9 4 5 1011.3 - 0.0
13/01:00am 21.8 17.3 -12.4 9 12.3 WNW 7 7 4 4 1011.5 - 0.0
13/12:30am 21.3 16.7 -12.8 9 12.1 WNW 7 9 4 5 1011.8 - 0.0
13/12:00am 22.9 17.9 -13.1 8 12.9 N 9 11 5 6 1012.0 1009.5 0.0
 
Date/Time
CST
Temp
°C
App
Temp
°C
Dew
Point
°C
Rel
Hum
%
Delta-T
°C
Wind Press
QNH
hPa
Press
MSL
hPa
Rain since
9am
mm
Dir  Spd
km/h
Gust
km/h
Spd
kts
Gust
kts
12/11:30pm 23.9 19.4 -14.0 7 13.5 N 6 7 3 4 1012.2 - 0.0

Other formats

Comma delimited format used in spreadsheet applications
http://www.bom.gov.au/fwo/IDD60801/IDD60801.95322.axf

JavaScript Object Notation format (JSON) in row-major order
http://www.bom.gov.au/fwo/IDD60801/IDD60801.95322.json

Data quality

Most of these data are generated automatically and are frequently updated. Quality checks on data are not normally performed. It is possible for incorrect values to appear. Refer to information at About Latest Weather Observations and please check the disclaimer before using these data.